Time;durP1;ratioP1;P1;durP2;ratioP2;P2;SDS_P1;SDS_P2;PMS_P1;PMS_P2;Temp;Humidity;BMP_temperature;BMP_pressure;BME280_temperature;BME280_humidity;BME280_pressure;Samples;Min_cycle;Max_cycle;Signal;HPM_P1;HPM_P2
2022/01/01 00:01:41;;;;;;;222.67;106.13;;;;;;;6.36;88.95;95322.13;5074363;28;20158;-81
2022/01/01 00:04:09;;;;;;;264.30;123.07;;;;;;;6.33;89.10;95317.25;5057219;28;20715;-80
2022/01/01 00:06:35;;;;;;;288.33;139.50;;;;;;;6.07;88.85;95281.78;5074292;28;20238;-80
2022/01/01 00:09:00;;;;;;;316.87;148.03;;;;;;;6.00;88.34;95278.25;5074182;28;20190;-81
2022/01/01 00:11:25;;;;;;;336.10;160.30;;;;;;;6.11;88.57;95297.94;5074012;28;20174;-81
2022/01/01 00:13:54;;;;;;;347.47;169.93;;;;;;;6.19;88.54;95303.13;5073516;28;20198;-80
2022/01/01 00:16:19;;;;;;;346.77;167.33;;;;;;;6.18;88.16;95305.91;5055939;28;20205;-81
2022/01/01 00:18:45;;;;;;;327.50;159.30;;;;;;;5.88;88.35;95270.97;5073479;28;20615;-80
2022/01/01 00:21:10;;;;;;;329.57;160.87;;;;;;;5.92;88.09;95274.84;5073130;28;20174;-80
2022/01/01 00:23:36;;;;;;;340.03;158.30;;;;;;;5.87;87.88;95277.16;5073768;28;20683;-80
2022/01/01 00:26:01;;;;;;;338.77;161.20;;;;;;;5.95;87.82;95292.81;5074103;28;20167;-80
2022/01/01 00:28:27;;;;;;;355.83;167.47;;;;;;;6.00;87.71;95293.91;5055883;28;20658;-80
2022/01/01 00:30:52;;;;;;;357.77;170.40;;;;;;;5.89;87.40;95296.09;5072396;28;20190;-81
2022/01/01 00:33:18;;;;;;;378.10;179.30;;;;;;;5.90;87.91;95306.38;5072483;28;20194;-81
2022/01/01 00:35:44;;;;;;;373.37;176.10;;;;;;;5.74;88.07;95289.94;5072659;28;20182;-81
2022/01/01 00:38:12;;;;;;;372.90;177.17;;;;;;;5.58;87.69;95270.75;5071600;28;21071;-81
2022/01/01 00:40:37;;;;;;;384.47;185.80;;;;;;;5.54;88.07;95272.06;5050364;28;20231;-81
2022/01/01 00:43:03;;;;;;;384.30;187.67;;;;;;;5.61;87.80;95308.78;5073042;28;20250;-80
2022/01/01 00:45:29;;;;;;;413.43;205.10;;;;;;;5.64;88.48;95311.03;5073051;28;20178;-81
2022/01/01 00:47:54;;;;;;;390.43;193.57;;;;;;;5.63;88.33;95304.16;5071935;28;20174;-81
2022/01/01 00:50:20;;;;;;;389.80;187.07;;;;;;;5.54;88.71;95290.31;5053620;28;20664;-81
2022/01/01 00:52:46;;;;;;;396.13;182.27;;;;;;;5.41;89.46;95269.19;5071978;28;20174;-81
2022/01/01 00:55:12;;;;;;;383.70;182.00;;;;;;;5.51;89.36;95290.69;5053957;28;20297;-81
2022/01/01 00:57:37;;;;;;;372.00;180.23;;;;;;;5.51;88.85;95287.25;5072223;28;20674;-81
2022/01/01 01:00:06;;;;;;;357.63;170.20;;;;;;;5.28;87.80;95258.44;5054008;28;20165;-81
2022/01/01 01:02:31;;;;;;;294.30;139.87;;;;;;;5.17;88.38;95246.59;5072108;28;20666;-81
2022/01/01 01:04:57;;;;;;;306.30;142.80;;;;;;;5.22;88.42;95259.94;5072515;28;20166;-81
2022/01/01 01:07:23;;;;;;;292.97;137.77;;;;;;;5.22;88.04;95253.91;5088076;28;20185;-81
2022/01/01 01:09:48;;;;;;;255.83;122.60;;;;;;;4.91;88.00;95217.31;5072693;28;20162;-81
2022/01/01 01:12:19;;;;;;;221.00;106.67;;;;;;;5.16;88.34;95260.63;5055015;28;20557;-81
2022/01/01 01:14:46;;;;;;;210.07;102.37;;;;;;;4.62;88.76;95183.97;5055850;28;20187;-81
2022/01/01 01:17:11;;;;;;;220.47;105.37;;;;;;;4.07;88.96;95100.50;5072767;28;20220;-81
2022/01/01 01:19:37;;;;;;;245.53;111.40;;;;;;;4.75;89.23;95220.78;5073099;28;20155;-81
2022/01/01 01:22:05;;;;;;;271.97;124.10;;;;;;;4.72;89.10;95218.50;5072761;28;20162;-81
2022/01/01 01:24:33;;;;;;;263.37;121.67;;;;;;;5.08;88.86;95272.88;5072934;28;20171;-80
2022/01/01 01:27:02;;;;;;;252.27;122.70;;;;;;;5.11;88.76;95289.00;5072574;28;20147;-80
2022/01/01 01:29:29;;;;;;;259.40;116.67;;;;;;;4.96;88.67;95274.19;5072663;28;20154;-81
2022/01/01 01:31:54;;;;;;;285.33;136.50;;;;;;;4.94;88.66;95277.78;5054615;28;20266;-81
2022/01/01 01:34:20;;;;;;;282.03;131.23;;;;;;;4.97;88.46;95278.44;5054617;28;20273;-81
2022/01/01 01:36:46;;;;;;;324.90;144.47;;;;;;;5.01;88.82;95295.38;5072693;28;20162;-81
2022/01/01 01:39:11;;;;;;;410.30;197.87;;;;;;;4.82;89.22;95266.06;5072454;28;20220;-82
2022/01/01 01:41:37;;;;;;;394.70;187.80;;;;;;;5.02;89.51;95295.19;5054537;28;20167;-82
2022/01/01 01:44:25;;;;;;;380.17;176.13;;;;;;;4.92;90.27;95292.78;5072329;28;20660;-82
2022/01/01 01:46:51;;;;;;;323.07;141.03;;;;;;;5.00;91.71;95281.53;5054361;28;20170;-82
2022/01/01 01:49:16;;;;;;;287.03;125.17;;;;;;;4.72;91.39;95264.59;5072277;28;20146;-82
2022/01/01 01:51:42;;;;;;;253.63;117.70;;;;;;;4.46;91.29;95228.31;5072551;28;20189;-81
2022/01/01 01:54:10;;;;;;;242.13;105.67;;;;;;;4.78;90.91;95285.63;5072323;28;20190;-81
2022/01/01 01:56:37;;;;;;;245.27;113.33;;;;;;;4.64;91.22;95265.44;5071937;28;20645;-81
2022/01/01 01:59:05;;;;;;;250.23;111.97;;;;;;;4.61;91.22;95251.91;5054212;28;20258;-81
2022/01/01 02:01:31;;;;;;;264.50;124.90;;;;;;;4.84;90.04;95281.56;5072134;28;20167;-81
2022/01/01 02:03:57;;;;;;;274.47;123.67;;;;;;;4.84;89.85;95277.13;5072102;28;20510;-81
2022/01/01 02:06:24;;;;;;;282.17;128.40;;;;;;;4.55;89.21;95227.31;5054075;28;20656;-81
2022/01/01 02:08:52;;;;;;;263.83;127.33;;;;;;;4.88;89.27;95261.97;5054249;28;20206;-81
2022/01/01 02:11:20;;;;;;;280.60;129.97;;;;;;;4.76;89.62;95245.03;5071995;28;20650;-81
2022/01/01 02:18:49;;;;;;;262.00;125.60;;;;;;;4.91;88.86;95275.50;5072708;28;20160;-81
2022/01/01 02:21:16;;;;;;;263.73;123.90;;;;;;;4.91;88.75;95270.31;5072207;28;20165;-81
2022/01/01 02:23:44;;;;;;;266.83;124.40;;;;;;;4.94;88.95;95267.34;5071926;28;20158;-81
2022/01/01 02:26:12;;;;;;;251.33;115.73;;;;;;;4.78;88.88;95237.88;5072155;28;20773;-81
2022/01/01 02:28:42;;;;;;;272.07;129.17;;;;;;;4.74;89.54;95232.19;5071899;28;20216;-81
2022/01/01 02:31:08;;;;;;;248.30;116.73;;;;;;;4.92;88.77;95269.31;5071874;28;20158;-81
2022/01/01 02:33:34;;;;;;;266.47;124.53;;;;;;;4.90;88.66;95263.44;5071693;28;20748;-81
2022/01/01 02:36:00;;;;;;;268.73;124.20;;;;;;;4.67;88.72;95228.59;5072343;28;20163;-81
2022/01/01 02:38:25;;;;;;;241.07;114.80;;;;;;;4.60;88.47;95206.78;5071755;28;20170;-81
2022/01/01 02:40:50;;;;;;;234.37;112.77;;;;;;;4.45;88.78;95177.16;5072030;28;20639;-81
2022/01/01 02:43:17;;;;;;;223.77;105.43;;;;;;;4.50;89.39;95177.44;5071944;28;20163;-81
2022/01/01 02:45:43;;;;;;;243.40;111.90;;;;;;;4.73;89.62;95216.69;5072083;28;20182;-81
2022/01/01 02:48:08;;;;;;;250.83;117.73;;;;;;;4.86;89.12;95243.06;5053723;28;20158;-81
2022/01/01 02:50:34;;;;;;;262.30;117.50;;;;;;;4.71;88.18;95224.69;5071947;28;20255;-81
2022/01/01 02:52:59;;;;;;;241.63;114.47;;;;;;;4.70;88.26;95236.09;5071832;28;20173;-81
2022/01/01 02:55:25;;;;;;;239.07;106.77;;;;;;;4.71;87.82;95221.25;5071482;28;20182;-81
2022/01/01 02:57:50;;;;;;;222.30;100.00;;;;;;;4.73;87.77;95229.75;5053349;28;20170;-81
2022/01/01 03:00:16;;;;;;;184.53;81.23;;;;;;;4.78;87.93;95243.91;5072247;28;20179;-81
2022/01/01 03:02:41;;;;;;;179.77;83.37;;;;;;;4.43;88.06;95176.50;5057466;28;20158;-81
2022/01/01 03:05:08;;;;;;;158.40;75.27;;;;;;;4.68;88.56;95226.78;5075748;28;20173;-81
2022/01/01 03:07:35;;;;;;;149.43;73.83;;;;;;;4.37;88.55;95177.16;5057298;28;20561;-81
2022/01/01 03:10:01;;;;;;;174.00;79.57;;;;;;;4.48;88.54;95208.09;5075293;28;20159;-81
2022/01/01 03:12:26;;;;;;;166.57;78.17;;;;;;;4.33;88.61;95183.66;5075200;28;20224;-81
2022/01/01 03:14:51;;;;;;;177.37;83.20;;;;;;;4.24;88.93;95189.88;5057201;28;20603;-81
2022/01/01 03:17:17;;;;;;;175.70;81.40;;;;;;;4.33;89.47;95197.50;5074544;28;20704;-81
2022/01/01 03:19:42;;;;;;;171.53;79.07;;;;;;;4.29;89.93;95198.00;5074735;28;20171;-80
2022/01/01 03:22:08;;;;;;;166.33;77.77;;;;;;;4.43;89.51;95218.19;5074780;28;20206;-81
2022/01/01 03:24:33;;;;;;;163.27;78.07;;;;;;;4.08;89.44;95168.06;5074726;28;20172;-81
2022/01/01 03:27:00;;;;;;;176.20;80.90;;;;;;;4.17;89.22;95192.31;5075280;28;20155;-81
2022/01/01 03:29:28;;;;;;;186.03;82.87;;;;;;;4.37;89.23;95224.06;5075192;28;20194;-81
2022/01/01 03:31:54;;;;;;;197.03;83.93;;;;;;;4.40;89.32;95237.59;5074881;28;20628;-81
2022/01/01 03:34:21;;;;;;;193.50;85.53;;;;;;;4.09;89.72;95161.88;5074791;28;20183;-81
2022/01/01 03:36:46;;;;;;;188.77;82.40;;;;;;;4.12;90.31;95148.53;5057083;28;20223;-81
2022/01/01 03:39:12;;;;;;;197.20;85.93;;;;;;;4.59;89.85;95226.00;5074884;28;20167;-81
2022/01/01 03:41:37;;;;;;;185.97;84.80;;;;;;;4.64;90.38;95222.91;5074765;28;20211;-81
2022/01/01 03:44:03;;;;;;;182.87;83.80;;;;;;;4.64;90.16;95231.53;5056702;28;20587;-81
2022/01/01 03:46:28;;;;;;;191.77;86.47;;;;;;;4.68;90.57;95225.00;5074944;28;20151;-81
2022/01/01 03:48:54;;;;;;;193.97;88.03;;;;;;;4.40;90.56;95195.91;5056566;28;21020;-81
2022/01/01 03:51:19;;;;;;;199.67;87.57;;;;;;;4.60;90.66;95217.19;5074603;28;20196;-81
2022/01/01 03:53:45;;;;;;;205.47;90.23;;;;;;;4.67;90.47;95233.81;5074394;28;20190;-80
2022/01/01 03:56:11;;;;;;;206.93;93.40;;;;;;;4.66;90.23;95216.56;5074773;28;20166;-81
2022/01/01 03:58:37;;;;;;;220.77;92.07;;;;;;;4.57;90.74;95183.66;5074412;28;20161;-81
2022/01/01 04:01:02;;;;;;;164.13;76.23;;;;;;;4.46;90.70;95181.38;5074353;28;20540;-81
2022/01/01 04:03:27;;;;;;;163.97;69.90;;;;;;;4.48;90.92;95184.66;5074223;28;20553;-81
2022/01/01 04:05:53;;;;;;;164.33;71.33;;;;;;;4.44;90.63;95163.31;5074313;28;20158;-81
2022/01/01 04:08:18;;;;;;;141.30;67.50;;;;;;;4.57;90.48;95193.28;5074127;28;20174;-81
2022/01/01 04:10:44;;;;;;;138.80;64.63;;;;;;;4.17;90.64;95125.41;5074179;28;20209;-81
2022/01/01 04:13:10;;;;;;;131.63;60.30;;;;;;;4.60;90.42;95198.94;5072854;28;20544;-81
2022/01/01 04:15:37;;;;;;;124.73;58.50;;;;;;;4.67;90.44;95186.88;5074300;28;20170;-81
2022/01/01 04:18:09;;;;;;;131.37;58.80;;;;;;;4.52;90.05;95146.84;5073960;28;20679;-81
2022/01/01 04:20:35;;;;;;;127.00;58.37;;;;;;;4.65;90.14;95162.78;5074023;28;20163;-81
2022/01/01 04:23:00;;;;;;;138.67;60.57;;;;;;;4.66;90.06;95156.59;5074038;28;20166;-81
2022/01/01 04:25:26;;;;;;;129.20;59.03;;;;;;;4.65;90.29;95160.19;5055981;28;20683;-81
2022/01/01 04:27:54;;;;;;;121.90;58.77;;;;;;;4.84;89.90;95172.81;5074141;28;20545;-81
2022/01/01 04:30:21;;;;;;;127.57;60.47;;;;;;;4.79;90.18;95180.34;5073836;28;20162;-80
2022/01/01 04:32:47;;;;;;;133.43;64.93;;;;;;;4.82;90.51;95164.38;5055408;28;20623;-80
2022/01/01 04:35:14;;;;;;;138.40;60.03;;;;;;;4.71;89.93;95151.69;5070871;28;20206;-80
2022/01/01 04:37:39;;;;;;;132.57;63.43;;;;;;;4.87;90.38;95172.50;5073724;28;20181;-80
2022/01/01 04:40:06;;;;;;;132.70;60.23;;;;;;;4.86;90.78;95168.25;5073495;28;20174;-80
2022/01/01 04:42:32;;;;;;;133.00;59.63;;;;;;;4.70;91.22;95144.03;5055279;28;20265;-80
2022/01/01 04:44:58;;;;;;;140.93;62.60;;;;;;;4.76;91.48;95143.34;5073522;28;20258;-80
2022/01/01 04:47:24;;;;;;;144.17;64.63;;;;;;;4.78;91.17;95144.81;5073564;28;20158;-80
2022/01/01 04:49:49;;;;;;;148.27;65.00;;;;;;;4.65;90.60;95109.81;5055303;28;20173;-82
2022/01/01 04:52:15;;;;;;;150.27;71.07;;;;;;;4.84;90.19;95130.31;5055476;28;20171;-82
2022/01/01 04:54:42;;;;;;;145.93;63.03;;;;;;;4.97;90.17;95176.69;5073272;28;20623;-82
2022/01/01 04:57:08;;;;;;;151.77;68.13;;;;;;;4.85;90.57;95164.00;5055397;28;20171;-82
2022/01/01 04:59:37;;;;;;;151.67;69.67;;;;;;;4.78;91.22;95152.63;5073215;28;20636;-82
2022/01/01 05:02:03;;;;;;;163.23;75.53;;;;;;;4.62;91.77;95126.59;5073175;28;20579;-82
2022/01/01 05:04:30;;;;;;;150.23;67.07;;;;;;;4.89;92.21;95159.28;5073422;28;20643;-82
2022/01/01 05:06:57;;;;;;;148.10;70.13;;;;;;;4.68;91.65;95125.94;5073239;28;20181;-82
2022/01/01 05:09:22;;;;;;;144.50;66.73;;;;;;;4.97;92.05;95179.31;5073322;28;20166;-82
2022/01/01 05:11:48;;;;;;;138.70;66.37;;;;;;;4.87;91.77;95167.28;5055123;28;20241;-82
2022/01/01 05:14:14;;;;;;;143.70;64.60;;;;;;;5.04;91.89;95183.69;5072843;28;20205;-82
2022/01/01 05:16:40;;;;;;;132.53;65.60;;;;;;;5.15;91.57;95187.72;5072986;28;20336;-82
2022/01/01 05:19:06;;;;;;;159.50;75.40;;;;;;;5.19;91.58;95199.47;5072833;28;20672;-82
2022/01/01 05:21:34;;;;;;;162.67;74.53;;;;;;;5.00;91.51;95176.38;5073086;28;20170;-82
2022/01/01 05:24:01;;;;;;;154.50;73.53;;;;;;;4.99;91.81;95159.91;5072352;28;20558;-82
2022/01/01 05:26:26;;;;;;;169.43;79.57;;;;;;;5.16;91.82;95202.41;5088320;28;20162;-82
2022/01/01 05:28:52;;;;;;;151.83;75.97;;;;;;;5.06;91.87;95188.72;5072677;28;20196;-82
2022/01/01 05:31:19;;;;;;;172.43;78.80;;;;;;;5.10;92.13;95195.25;5072695;28;20163;-82
2022/01/01 05:33:46;;;;;;;165.57;76.93;;;;;;;5.23;92.11;95219.81;5072511;28;20194;-82
2022/01/01 05:36:13;;;;;;;132.57;62.43;;;;;;;5.03;91.67;95199.50;5072876;28;20661;-82
2022/01/01 05:38:39;;;;;;;116.33;55.47;;;;;;;4.94;91.95;95190.88;5072396;28;20204;-82
2022/01/01 05:41:04;;;;;;;105.90;50.47;;;;;;;5.03;91.46;95199.50;5072513;28;20538;-82
2022/01/01 05:43:30;;;;;;;112.70;52.57;;;;;;;5.28;91.35;95234.94;5072764;28;20695;-82
2022/01/01 05:45:55;;;;;;;122.97;54.20;;;;;;;5.01;91.33;95193.66;5072851;28;20607;-82
2022/01/01 05:48:21;;;;;;;114.20;52.37;;;;;;;5.08;91.45;95215.47;5072666;28;20157;-82
2022/01/01 05:50:47;;;;;;;109.60;52.17;;;;;;;4.81;91.48;95174.97;5072292;28;20190;-83
2022/01/01 05:53:12;;;;;;;112.33;52.63;;;;;;;5.23;91.46;95224.22;5072194;28;20555;-82
2022/01/01 05:55:38;;;;;;;114.53;52.37;;;;;;;5.18;91.12;95222.13;5072327;28;20628;-82
2022/01/01 05:58:05;;;;;;;110.73;51.53;;;;;;;5.17;90.81;95212.66;5072416;28;20185;-82
2022/01/01 06:00:30;;;;;;;106.47;54.43;;;;;;;4.98;90.94;95171.31;5054304;28;20273;-82
2022/01/01 06:02:57;;;;;;;111.37;51.03;;;;;;;5.17;90.62;95204.03;5071977;28;20245;-82
2022/01/01 06:05:23;;;;;;;97.23;49.27;;;;;;;5.01;90.76;95194.47;5071892;28;20605;-82
2022/01/01 06:07:59;;;;;;;97.83;48.37;;;;;;;4.84;90.94;95161.59;5071904;28;20174;-82
2022/01/01 06:10:25;;;;;;;104.23;50.13;;;;;;;5.20;90.52;95214.94;5072347;28;20154;-82
2022/01/01 06:12:51;;;;;;;90.73;46.67;;;;;;;5.19;90.91;95209.91;5072366;28;20188;-82
2022/01/01 06:15:17;;;;;;;111.43;52.47;;;;;;;5.18;91.02;95200.44;5053840;28;20178;-82
2022/01/01 06:17:43;;;;;;;106.43;50.43;;;;;;;5.02;91.06;95183.03;5072013;28;20332;-82
2022/01/01 06:20:10;;;;;;;107.53;51.50;;;;;;;5.27;91.11;95220.31;5071996;28;20636;-82
2022/01/01 06:22:36;;;;;;;102.73;46.60;;;;;;;5.13;91.17;95200.94;5072118;28;20174;-82
2022/01/01 06:25:08;;;;;;;107.67;51.90;;;;;;;5.16;90.83;95194.56;5072445;28;20201;-82
2022/01/01 06:27:36;;;;;;;105.97;49.57;;;;;;;5.35;91.10;95204.63;5072130;28;20169;-82
2022/01/01 06:30:03;;;;;;;101.30;47.17;;;;;;;5.30;91.52;95189.44;5072151;28;20249;-82
2022/01/01 06:32:33;;;;;;;97.83;48.07;;;;;;;5.39;91.66;95187.59;5053833;28;20183;-82
2022/01/01 06:35:02;;;;;;;100.37;49.23;;;;;;;5.56;91.39;95217.88;5053895;28;20749;-82
2022/01/01 06:37:27;;;;;;;104.13;48.83;;;;;;;5.34;91.18;95178.69;5075888;28;20227;-82
2022/01/01 06:39:53;;;;;;;108.27;50.20;;;;;;;5.74;91.18;95222.84;5057231;28;20542;-82
2022/01/01 06:42:18;;;;;;;101.33;49.50;;;;;;;5.58;90.85;95187.19;5076432;28;20163;-82
2022/01/01 06:44:44;;;;;;;119.97;57.73;;;;;;;5.97;90.54;95234.16;5075815;28;20179;-82
2022/01/01 06:47:10;;;;;;;119.30;55.30;;;;;;;6.04;90.44;95236.91;5076061;28;20177;-82
2022/01/01 06:49:36;;;;;;;106.23;54.10;;;;;;;6.10;90.48;95240.63;5057989;28;20170;-82
2022/01/01 06:52:03;;;;;;;118.83;56.70;;;;;;;6.23;90.43;95223.34;5075651;28;20640;-82
2022/01/01 06:54:29;;;;;;;102.47;51.90;;;;;;;6.41;90.14;95223.06;5057637;28;20591;-82
2022/01/01 06:56:54;;;;;;;83.30;40.70;;;;;;;6.49;88.83;95222.22;5075905;28;20167;-82
2022/01/01 06:59:19;;;;;;;63.57;34.03;;;;;;;6.65;88.85;95240.38;5075521;28;20177;-82
2022/01/01 07:01:45;;;;;;;73.87;37.17;;;;;;;6.56;88.97;95207.44;5075552;28;20242;-82
2022/01/01 07:04:10;;;;;;;62.63;33.37;;;;;;;6.55;89.12;95196.16;5075223;28;20651;-82
2022/01/01 07:06:38;;;;;;;52.60;26.97;;;;;;;6.99;89.20;95235.47;5075687;28;20171;-82
2022/01/01 07:09:04;;;;;;;60.80;30.53;;;;;;;7.51;88.76;95232.75;5057469;28;20166;-82
2022/01/01 07:11:40;;;;;;;75.70;39.67;;;;;;;7.93;86.69;95221.56;5075136;28;20182;-82
2022/01/01 07:14:06;;;;;;;82.27;45.93;;;;;;;8.41;84.86;95221.03;5075754;28;20193;-82
2022/01/01 07:16:31;;;;;;;82.97;44.60;;;;;;;8.63;82.05;95227.91;5074789;28;20182;-82
2022/01/01 07:18:56;;;;;;;67.47;37.53;;;;;;;8.99;80.19;95252.19;5057131;28;20193;-82
2022/01/01 07:21:22;;;;;;;54.93;29.87;;;;;;;8.94;79.99;95230.94;5074997;28;20174;-82
2022/01/01 07:23:49;;;;;;;51.60;25.90;;;;;;;9.64;78.87;95242.28;5057224;28;20296;-84
2022/01/01 07:26:14;;;;;;;45.40;24.57;;;;;;;9.83;76.77;95197.66;5057085;28;20183;-82
2022/01/01 07:28:39;;;;;;;45.13;24.13;;;;;;;11.57;73.62;95265.03;5074824;28;20166;-82
2022/01/01 07:31:05;;;;;;;44.93;23.10;;;;;;;12.90;67.96;95239.59;5074994;28;20588;-86
2022/01/01 07:33:30;;;;;;;37.33;19.90;;;;;;;14.47;61.72;95224.91;5074812;28;20237;-83
2022/01/01 07:35:56;;;;;;;34.77;19.60;;;;;;;16.93;55.90;95267.75;5057017;28;20180;-85
2022/01/01 07:38:22;;;;;;;221.93;152.30;;;;;;;19.06;50.13;95251.09;5075109;28;20166;-85
2022/01/01 07:40:48;;;;;;;157.75;108.57;;;;;;;21.26;45.66;95258.09;5074755;28;20155;-85
2022/01/01 07:43:16;;;;;;;32.00;17.52;;;;;;;23.02;41.60;95273.97;5074693;28;20174;-85
2022/01/01 07:45:42;;;;;;;26.90;16.58;;;;;;;24.23;37.91;95243.38;5056698;28;20181;-86
2022/01/01 07:48:08;;;;;;;29.80;17.42;;;;;;;25.11;35.11;95218.53;5074604;28;20223;-84
2022/01/01 07:50:36;;;;;;;20.92;15.18;;;;;;;25.93;32.56;95231.47;5073926;28;20178;-84
2022/01/01 07:53:02;;;;;;;28.80;17.77;;;;;;;26.37;31.50;95239.03;5073700;28;20178;-84
2022/01/01 07:55:27;;;;;;;22.98;15.65;;;;;;;26.71;31.47;95219.69;5073447;28;20198;-84
2022/01/01 07:57:53;;;;;;;28.50;19.08;;;;;;;26.74;31.07;95245.28;5055363;28;20167;-84
2022/01/01 08:00:19;;;;;;;31.20;19.70;;;;;;;25.59;32.02;95256.09;5074328;28;20174;-83
2022/01/01 08:02:46;;;;;;;29.55;18.77;;;;;;;24.10;33.81;95238.66;5074365;28;20167;-83
2022/01/01 08:05:12;;;;;;;29.17;18.55;;;;;;;22.86;37.21;95246.41;5074338;28;20249;-83
2022/01/01 08:07:38;;;;;;;32.25;20.35;;;;;;;22.50;37.68;95233.16;5075033;28;20555;-83
2022/01/01 08:10:05;;;;;;;34.30;21.80;;;;;;;23.17;37.16;95241.66;5074546;28;20584;-83
2022/01/01 08:12:30;;;;;;;27.35;19.27;;;;;;;23.27;37.20;95199.38;5074181;28;20542;-84
2022/01/01 08:14:57;;;;;;;30.23;21.02;;;;;;;22.52;38.05;95240.94;5055994;28;20201;-83
2022/01/01 08:17:23;;;;;;;34.72;22.40;;;;;;;20.84;40.85;95243.03;5073899;28;20313;-83
2022/01/01 08:19:49;;;;;;;32.53;19.58;;;;;;;19.07;45.31;95245.53;5074074;28;20166;-83
2022/01/01 08:22:15;;;;;;;30.48;17.48;;;;;;;17.78;49.40;95249.91;5073910;28;20161;-83
2022/01/01 08:24:41;;;;;;;13.07;7.78;;;;;;;16.62;52.53;95244.31;5073987;28;20171;-83
2022/01/01 08:27:07;;;;;;;8.23;5.00;;;;;;;15.78;55.63;95237.84;5074128;28;20170;-82
2022/01/01 08:29:33;;;;;;;5.97;4.07;;;;;;;15.43;57.58;95236.00;5074170;28;20163;-82
2022/01/01 08:31:58;;;;;;;5.63;4.17;;;;;;;15.10;58.60;95190.69;5073838;28;20174;-83
2022/01/01 08:34:26;;;;;;;9.43;5.53;;;;;;;14.56;58.79;95131.63;5055831;28;20202;-85
2022/01/01 08:36:51;;;;;;;7.10;4.17;;;;;;;15.23;58.94;95242.69;5089245;28;20178;-84
2022/01/01 08:39:17;;;;;;;7.57;4.27;;;;;;;15.05;59.83;95203.81;5073555;28;20165;-85
2022/01/01 08:41:44;;;;;;;9.40;4.63;;;;;;;15.47;59.76;95193.91;5055706;28;20170;-84
2022/01/01 08:44:09;;;;;;;6.67;4.43;;;;;;;16.30;58.98;95243.94;5071588;28;20197;-84
2022/01/01 08:46:35;;;;;;;8.90;4.97;;;;;;;16.48;56.43;95216.38;5072418;28;20565;-85
2022/01/01 08:49:05;;;;;;;11.53;6.20;;;;;;;16.85;54.97;95248.72;5072057;28;20178;-83
2022/01/01 08:51:32;;;;;;;8.73;6.00;;;;;;;16.68;54.70;95259.31;5054547;28;20225;-84
2022/01/01 08:53:57;;;;;;;12.97;6.87;;;;;;;16.75;55.46;95259.16;5072729;28;20190;-84
2022/01/01 08:56:23;;;;;;;12.57;7.37;;;;;;;16.89;54.83;95263.94;5073089;28;20200;-84
2022/01/01 08:58:52;;;;;;;12.33;7.57;;;;;;;16.55;54.28;95212.53;5054496;28;20206;-84
2022/01/01 09:01:17;;;;;;;10.07;5.37;;;;;;;16.56;53.81;95239.91;5072848;28;20178;-85
2022/01/01 09:03:43;;;;;;;7.43;4.50;;;;;;;16.51;53.89;95269.06;5086965;28;20174;-84
2022/01/01 09:06:14;;;;;;;8.03;4.73;;;;;;;16.18;55.04;95269.72;5053911;28;20213;-84
2022/01/01 09:08:42;;;;;;;5.67;3.20;;;;;;;15.68;55.16;95242.94;5071661;28;20209;-84
2022/01/01 09:11:09;;;;;;;5.17;2.63;;;;;;;15.49;57.32;95269.56;5054804;28;20205;-85
2022/01/01 09:16:56;;;;;;;5.07;3.00;;;;;;;15.71;57.61;95253.91;5072224;28;20226;-83
2022/01/01 09:19:22;;;;;;;3.30;2.50;;;;;;;16.04;56.71;95268.38;5071646;28;20170;-82
2022/01/01 09:21:47;;;;;;;4.87;3.00;;;;;;;16.23;56.28;95273.31;5071740;28;20171;-84
2022/01/01 09:24:12;;;;;;;4.23;3.20;;;;;;;16.36;56.27;95232.38;5074034;28;20196;-84
2022/01/01 09:26:38;;;;;;;6.20;4.37;;;;;;;16.41;54.84;95261.72;5071991;28;20186;-84
2022/01/01 09:29:04;;;;;;;5.40;2.57;;;;;;;16.50;54.51;95241.69;5053439;28;20170;-87
2022/01/01 09:31:31;;;;;;;4.03;2.47;;;;;;;16.76;54.44;95282.88;5049893;28;20659;-86
2022/01/01 09:33:56;;;;;;;3.93;2.90;;;;;;;16.15;55.00;95222.41;5071623;28;20205;-86
2022/01/01 09:36:22;;;;;;;6.43;3.90;;;;;;;16.49;54.71;95287.09;5053349;28;20569;-84
2022/01/01 09:38:49;;;;;;;9.33;3.43;;;;;;;16.40;55.76;95264.59;5071749;28;20204;-87
2022/01/01 09:41:17;;;;;;;7.60;3.80;;;;;;;16.51;54.61;95263.75;5070794;28;20881;-86
2022/01/01 09:43:44;;;;;;;9.90;4.53;;;;;;;16.10;54.39;95270.09;5052493;28;20324;-87
2022/01/01 09:46:13;;;;;;;7.60;3.90;;;;;;;16.04;54.95;95297.59;5072162;28;20703;-83
2022/01/01 09:48:39;;;;;;;4.77;3.33;;;;;;;15.55;56.17;95259.91;5069470;28;20579;-84
2022/01/01 09:51:06;;;;;;;5.60;3.40;;;;;;;15.35;57.12;95265.53;5052642;28;20265;-84
2022/01/01 09:53:32;;;;;;;7.83;4.30;;;;;;;15.40;57.43;95283.41;5071210;28;20162;-85
2022/01/01 09:56:02;;;;;;;5.40;4.00;;;;;;;14.82;57.78;95222.34;5036601;28;20174;-84
2022/01/01 09:58:33;;;;;;;10.27;5.57;;;;;;;14.90;58.72;95289.09;5070484;28;20181;-84
2022/01/01 10:01:00;;;;;;;13.07;5.57;;;;;;;14.44;60.27;95257.16;5071044;28;20193;-82
2022/01/01 10:03:40;;;;;;;6.13;4.13;;;;;;;14.53;60.67;95298.19;5070635;28;20179;-82
2022/01/01 10:06:12;;;;;;;7.70;4.57;;;;;;;14.41;61.22;95300.78;5048270;28;20182;-84
2022/01/01 10:08:41;;;;;;;6.07;3.83;;;;;;;14.21;61.49;95285.09;5070490;28;20673;-83
2022/01/01 10:11:08;;;;;;;8.53;5.03;;;;;;;13.93;63.20;95261.81;5070455;28;20183;-84
2022/01/01 10:13:37;;;;;;;10.30;5.70;;;;;;;14.00;64.47;95303.28;5070459;28;21082;-85
2022/01/01 10:16:05;;;;;;;11.50;6.13;;;;;;;13.44;65.91;95232.84;5085448;28;20178;-84
2022/01/01 10:18:36;;;;;;;26.10;8.77;;;;;;;13.56;65.69;95276.88;5051758;28;20218;-85
2022/01/01 10:21:16;;;;;;;18.87;7.73;;;;;;;13.44;65.55;95246.88;5065422;28;20188;-84
2022/01/01 10:23:44;;;;;;;11.40;5.83;;;;;;;13.80;63.50;95306.13;5050480;28;20178;-83
2022/01/01 10:29:09;;;;;;;12.50;7.47;;;;;;;13.89;64.64;95291.59;5069363;28;20220;-84
2022/01/01 10:31:36;;;;;;;8.70;4.73;;;;;;;13.90;63.40;95293.22;5070914;28;20228;-83
2022/01/01 10:34:10;;;;;;;10.53;5.23;;;;;;;13.81;62.29;95287.41;5052493;28;20285;-83
2022/01/01 10:36:35;;;;;;;7.10;4.40;;;;;;;13.54;62.58;95265.69;5053090;28;20257;-84
2022/01/01 10:39:17;;;;;;;10.53;4.40;;;;;;;13.37;62.50;95255.91;5070702;28;20261;-83
2022/01/01 10:41:50;;;;;;;11.93;6.13;;;;;;;13.40;63.11;95258.94;5069865;28;20634;-85
2022/01/01 10:44:20;;;;;;;9.53;5.40;;;;;;;13.43;63.35;95258.47;5063379;28;20185;-85
2022/01/01 10:46:45;;;;;;;11.33;6.23;;;;;;;13.32;63.95;95240.66;5051834;28;20178;-83
2022/01/01 10:50:02;;;;;;;9.87;5.80;;;;;;;13.64;63.81;95274.97;5069510;28;20257;-84
2022/01/01 10:52:29;;;;;;;8.97;5.23;;;;;;;13.51;63.70;95241.50;5064272;28;20195;-85
2022/01/01 10:55:06;;;;;;;9.43;4.47;;;;;;;13.90;61.89;95272.03;5064694;28;20190;-85
2022/01/01 10:57:34;;;;;;;9.77;4.73;;;;;;;14.01;62.06;95267.84;5068557;28;20177;-82
2022/01/01 11:00:20;;;;;;;10.10;5.13;;;;;;;13.63;61.97;95191.34;5070257;28;20178;-81
2022/01/01 11:02:57;;;;;;;10.13;5.70;;;;;;;14.02;61.68;95248.25;5070332;28;20614;-83
2022/01/01 11:05:33;;;;;;;11.67;5.93;;;;;;;14.25;61.26;95269.59;5069719;28;20174;-84
2022/01/01 11:08:00;;;;;;;8.03;4.53;;;;;;;14.24;60.56;95274.06;5061915;28;20197;-83
2022/01/01 11:10:26;;;;;;;7.80;4.37;;;;;;;14.15;59.44;95267.47;5067321;28;20284;-83
2022/01/01 11:12:52;;;;;;;6.40;3.40;;;;;;;13.96;58.03;95244.69;5051790;28;20178;-83
2022/01/01 11:15:18;;;;;;;5.87;3.97;;;;;;;13.96;58.79;95257.91;5050612;28;20691;-83
2022/01/01 11:17:47;;;;;;;7.77;3.13;;;;;;;14.01;58.00;95283.75;5067841;28;20297;-84
2022/01/01 11:20:14;;;;;;;6.57;3.77;;;;;;;13.77;58.63;95256.28;5068133;28;20182;-83
2022/01/01 11:22:41;;;;;;;4.50;2.90;;;;;;;13.78;58.34;95269.31;5070855;28;20214;-83
2022/01/01 11:25:06;;;;;;;8.33;4.30;;;;;;;13.60;59.28;95266.66;5071000;28;20232;-83
2022/01/01 11:27:32;;;;;;;6.67;4.77;;;;;;;13.13;60.31;95200.19;5071377;28;20210;-83
2022/01/01 11:29:59;;;;;;;6.60;3.97;;;;;;;13.33;61.09;95262.63;5053580;28;20182;-83